Time;durP1;ratioP1;P1;durP2;ratioP2;P2;SDS_P1;SDS_P2;PMS_P1;PMS_P2;Temp;Humidity;BMP_temperature;BMP_pressure;BME280_temperature;BME280_humidity;BME280_pressure;Samples;Min_cycle;Max_cycle;Signal;HPM_P1;HPM_P2
2020/12/21 00:02:15;;;;;;;8.23;3.50;;;8.30;83.90;;;;;;5021979;28;20042;-93
2020/12/21 00:04:41;;;;;;;7.65;3.30;;;8.20;83.90;;;;;;5023062;28;20547;-92
2020/12/21 00:07:07;;;;;;;10.82;3.80;;;8.20;84.00;;;;;;5021504;28;20084;-94
2020/12/21 00:12:02;;;;;;;12.60;5.47;;;8.20;84.10;;;;;;5026183;28;20053;-93
2020/12/21 00:14:59;;;;;;;9.43;4.35;;;8.10;84.20;;;;;;5024539;28;20382;-95
2020/12/21 00:17:24;;;;;;;8.05;3.92;;;8.10;84.30;;;;;;5001777;28;20022;-93
2020/12/21 00:19:59;;;;;;;12.88;5.22;;;8.10;84.30;;;;;;5024653;28;20562;-94
2020/12/21 00:22:39;;;;;;;11.43;5.72;;;8.10;84.40;;;;;;5144253;22;20040;-89
2020/12/21 00:25:17;;;;;;;11.23;4.88;;;8.10;84.50;;;;;;5042589;28;20017;-93
2020/12/21 00:28:28;;;;;;;12.60;5.63;;;8.00;84.60;;;;;;5037096;28;20068;-91
2020/12/21 00:30:53;;;;;;;8.52;3.97;;;8.00;84.70;;;;;;5037009;28;20029;-94
2020/12/21 00:33:19;;;;;;;11.13;4.70;;;7.90;84.70;;;;;;5038590;28;20040;-93
2020/12/21 00:35:44;;;;;;;9.77;3.97;;;7.90;84.80;;;;;;5017915;28;20028;-92
2020/12/21 00:38:10;;;;;;;9.43;3.90;;;7.90;84.80;;;;;;5038542;28;20025;-92
2020/12/21 00:40:42;;;;;;;10.85;3.90;;;7.90;85.50;;;;;;5139984;23;20455;-94
2020/12/21 00:43:08;;;;;;;9.48;3.72;;;7.90;84.90;;;;;;5032330;28;20112;-93
2020/12/21 00:45:37;;;;;;;8.68;3.83;;;7.90;84.90;;;;;;5029014;28;20057;-92
2020/12/21 00:48:02;;;;;;;10.00;3.60;;;7.90;84.90;;;;;;5031547;28;20021;-94
2020/12/21 00:50:34;;;;;;;10.93;4.40;;;7.90;85.00;;;;;;5032540;28;20020;-94
2020/12/21 00:52:59;;;;;;;7.60;2.60;;;7.90;85.00;;;;;;5034129;28;20037;-92
2020/12/21 00:56:19;;;;;;;11.00;4.50;;;7.90;85.60;;;;;;5018023;28;20017;-94
2020/12/21 00:58:45;;;;;;;7.82;3.08;;;7.90;85.10;;;;;;5026846;28;20037;-92
2020/12/21 01:01:26;;;;;;;13.80;3.75;;;7.80;85.00;;;;;;5008839;28;20049;-93
2020/12/21 01:03:51;;;;;;;7.25;3.40;;;7.80;85.00;;;;;;5032254;28;20029;-91
2020/12/21 01:06:17;;;;;;;9.98;3.88;;;7.80;85.00;;;;;;5018517;28;20287;-92
2020/12/21 01:08:45;;;;;;;7.30;3.42;;;7.80;85.10;;;;;;5015944;28;20030;-92
2020/12/21 01:11:12;;;;;;;9.88;4.55;;;7.80;85.10;;;;;;5000599;28;20476;-93
2020/12/21 01:13:39;;;;;;;13.13;5.13;;;7.80;85.20;;;;;;5014561;28;20038;-93
2020/12/21 01:16:05;;;;;;;8.52;3.35;;;7.70;85.20;;;;;;5026711;28;20075;-94
2020/12/21 01:18:30;;;;;;;10.13;4.53;;;7.70;85.30;;;;;;5018505;28;20110;-92
2020/12/21 01:20:56;;;;;;;11.15;3.80;;;7.70;85.30;;;;;;5033010;28;20506;-91
2020/12/21 01:23:22;;;;;;;7.05;3.10;;;7.70;85.40;;;;;;5026793;28;20053;-94
2020/12/21 01:25:47;;;;;;;7.68;3.47;;;7.70;85.40;;;;;;5000533;28;20175;-93
2020/12/21 01:28:13;;;;;;;10.68;4.03;;;7.70;85.30;;;;;;5014490;28;20029;-93
2020/12/21 01:30:38;;;;;;;11.95;4.90;;;7.70;85.30;;;;;;5014919;28;20108;-94
2020/12/21 01:33:04;;;;;;;8.98;3.63;;;7.70;85.40;;;;;;4996570;28;20040;-93
2020/12/21 01:35:30;;;;;;;6.95;3.28;;;7.60;85.40;;;;;;5018450;28;20034;-93
2020/12/21 01:37:55;;;;;;;4.22;2.45;;;7.60;85.50;;;;;;5018483;28;20460;-93
2020/12/21 01:40:21;;;;;;;9.35;3.28;;;7.70;85.50;;;;;;5013236;28;20041;-94
2020/12/21 01:42:47;;;;;;;9.38;3.60;;;7.60;85.40;;;;;;5002382;28;20441;-91
2020/12/21 01:45:12;;;;;;;7.60;3.17;;;7.60;85.40;;;;;;5026655;28;20053;-94
2020/12/21 01:47:38;;;;;;;8.57;3.17;;;7.60;85.50;;;;;;5023911;28;20195;-94
2020/12/21 01:50:05;;;;;;;8.63;3.63;;;7.60;85.50;;;;;;5014154;28;20053;-92
2020/12/21 01:52:31;;;;;;;11.13;4.13;;;7.60;85.60;;;;;;5035679;28;20029;-93
2020/12/21 01:54:57;;;;;;;10.05;4.20;;;7.60;85.60;;;;;;5011733;28;20124;-93
2020/12/21 01:57:23;;;;;;;7.93;2.95;;;7.60;85.60;;;;;;5036208;28;20018;-93
2020/12/21 01:59:48;;;;;;;11.00;3.08;;;7.60;85.60;;;;;;5015582;28;20030;-93
2020/12/21 02:02:14;;;;;;;8.18;2.65;;;7.60;85.60;;;;;;5024166;28;20048;-92
2020/12/21 02:04:39;;;;;;;10.30;4.00;;;7.60;85.60;;;;;;5026200;28;20025;-92
2020/12/21 02:07:07;;;;;;;11.55;3.72;;;7.50;85.50;;;;;;5015456;28;20033;-92
2020/12/21 02:09:33;;;;;;;10.90;3.78;;;7.50;85.60;;;;;;5015733;28;20041;-95
2020/12/21 02:11:58;;;;;;;8.98;4.03;;;7.50;85.70;;;;;;5014927;28;20072;-94
2020/12/21 02:14:24;;;;;;;10.73;3.63;;;7.40;85.80;;;;;;4999365;28;20065;-94
2020/12/21 02:16:50;;;;;;;6.03;2.38;;;7.40;85.90;;;;;;4997299;28;20033;-94
2020/12/21 02:19:15;;;;;;;11.50;3.70;;;7.50;86.00;;;;;;5022196;28;20029;-93
2020/12/21 02:21:41;;;;;;;7.88;3.10;;;7.50;85.90;;;;;;5028187;28;20026;-94
2020/12/21 02:24:07;;;;;;;9.25;3.72;;;7.50;85.90;;;;;;5017046;28;20084;-93
2020/12/21 02:26:32;;;;;;;10.02;3.20;;;7.50;85.90;;;;;;5015197;28;20109;-94
2020/12/21 02:28:59;;;;;;;9.35;3.80;;;7.40;86.00;;;;;;5019517;28;20119;-94
2020/12/21 02:31:26;;;;;;;8.38;2.92;;;7.40;86.10;;;;;;4993956;28;20018;-93
2020/12/21 02:33:52;;;;;;;6.43;2.90;;;7.50;86.10;;;;;;5020008;28;20199;-94
2020/12/21 02:36:18;;;;;;;12.05;4.00;;;7.40;86.00;;;;;;5022045;28;20551;-94
2020/12/21 02:38:43;;;;;;;8.07;3.20;;;7.50;86.00;;;;;;5021330;28;20146;-93
2020/12/21 02:41:14;;;;;;;6.47;2.50;;;7.40;86.00;;;;;;5031522;28;20041;-93
2020/12/21 02:43:39;;;;;;;9.45;3.60;;;7.50;86.00;;;;;;5026862;28;20053;-94
2020/12/21 02:46:13;;;;;;;7.97;3.03;;;7.50;86.00;;;;;;5022883;28;20523;-93
2020/12/21 02:48:39;;;;;;;7.65;2.85;;;7.50;86.00;;;;;;5023706;28;20083;-93
2020/12/21 02:51:05;;;;;;;5.90;2.60;;;7.50;86.00;;;;;;5015088;28;20030;-94
2020/12/21 02:53:30;;;;;;;5.68;2.50;;;7.50;86.00;;;;;;5028297;28;20035;-94
2020/12/21 02:55:56;;;;;;;7.97;2.53;;;7.50;85.90;;;;;;5028889;28;20100;-94
2020/12/21 02:58:22;;;;;;;8.73;3.15;;;7.50;85.90;;;;;;5027172;28;20091;-94
2020/12/21 03:00:48;;;;;;;15.52;4.57;;;7.50;85.90;;;;;;5031781;28;20034;-95
2020/12/21 03:03:13;;;;;;;10.27;3.38;;;7.50;85.90;;;;;;5028288;28;20036;-94
2020/12/21 03:05:39;;;;;;;8.68;2.97;;;7.50;86.10;;;;;;5030946;28;20072;-95
2020/12/21 03:08:07;;;;;;;7.63;3.28;;;7.40;86.00;;;;;;5008776;28;20052;-95
2020/12/21 03:10:33;;;;;;;10.52;3.00;;;7.40;86.00;;;;;;5029011;28;20030;-94
2020/12/21 03:13:00;;;;;;;5.72;2.60;;;7.40;86.00;;;;;;5030055;28;20159;-94
2020/12/21 03:15:26;;;;;;;8.40;2.83;;;7.50;86.00;;;;;;5015327;28;20038;-95
2020/12/21 03:17:51;;;;;;;7.20;2.65;;;7.50;86.00;;;;;;5024914;28;20044;-96
2020/12/21 03:20:17;;;;;;;6.57;2.60;;;7.50;86.30;;;;;;5002794;28;20122;-94
2020/12/21 03:22:43;;;;;;;9.13;2.83;;;7.50;85.90;;;;;;5032767;28;20675;-95
2020/12/21 03:25:09;;;;;;;5.47;2.42;;;7.40;86.00;;;;;;5019576;28;20026;-94
2020/12/21 03:27:35;;;;;;;9.35;2.78;;;7.40;85.90;;;;;;5023450;28;20026;-94
2020/12/21 03:30:03;;;;;;;8.00;2.70;;;7.40;86.50;;;;;;4997804;28;20052;-95
2020/12/21 03:32:28;;;;;;;8.27;2.67;;;7.40;86.00;;;;;;5018868;28;20017;-94
2020/12/21 03:34:54;;;;;;;7.13;2.60;;;7.40;86.00;;;;;;5021762;28;20043;-94
2020/12/21 03:37:20;;;;;;;5.43;2.55;;;7.40;86.00;;;;;;4994017;28;20026;-94
2020/12/21 03:39:45;;;;;;;10.45;3.35;;;7.40;86.00;;;;;;5025728;28;20048;-91
2020/12/21 03:42:12;;;;;;;7.20;3.00;;;7.40;85.90;;;;;;5016206;28;20121;-94
2020/12/21 03:44:37;;;;;;;7.07;2.25;;;7.40;86.00;;;;;;5025980;28;20129;-93
2020/12/21 03:47:03;;;;;;;6.22;2.38;;;7.40;86.00;;;;;;5030822;28;20028;-93
2020/12/21 03:49:28;;;;;;;9.40;3.15;;;7.40;86.00;;;;;;5011405;28;20509;-93
2020/12/21 03:51:54;;;;;;;4.95;2.30;;;7.40;86.00;;;;;;5032938;28;20025;-92
2020/12/21 03:54:19;;;;;;;7.90;2.63;;;7.40;86.00;;;;;;5012104;28;20120;-92
2020/12/21 03:56:45;;;;;;;5.63;1.90;;;7.40;86.00;;;;;;4995024;28;20050;-92
2020/12/21 03:59:11;;;;;;;5.07;2.30;;;7.40;86.00;;;;;;5027005;28;20029;-90
2020/12/21 04:01:37;;;;;;;6.13;2.50;;;7.40;86.00;;;;;;5031853;28;20025;-91
2020/12/21 04:04:06;;;;;;;6.93;2.42;;;7.40;85.90;;;;;;5019301;28;20018;-93
2020/12/21 04:06:32;;;;;;;5.95;2.05;;;7.40;85.90;;;;;;5031941;28;20009;-94
2020/12/21 04:08:58;;;;;;;6.00;2.47;;;7.40;86.00;;;;;;5032974;28;20049;-94
2020/12/21 04:11:23;;;;;;;5.15;2.10;;;7.40;86.10;;;;;;5026857;28;20523;-89
2020/12/21 04:13:49;;;;;;;6.72;2.75;;;7.40;86.10;;;;;;5016045;28;20033;-93
2020/12/21 04:16:15;;;;;;;5.82;2.13;;;7.40;86.00;;;;;;5030960;28;20025;-94
2020/12/21 04:18:41;;;;;;;7.00;2.58;;;7.40;86.00;;;;;;5017810;28;20025;-92
2020/12/21 04:21:13;;;;;;;7.65;2.30;;;7.40;85.90;;;;;;5026180;28;20022;-94
2020/12/21 04:23:39;;;;;;;12.52;2.80;;;7.40;86.00;;;;;;5029158;28;20109;-94
2020/12/21 04:26:05;;;;;;;7.90;2.70;;;7.40;85.90;;;;;;5026525;28;20526;-94
2020/12/21 04:28:32;;;;;;;8.00;2.65;;;7.40;85.90;;;;;;5024212;28;20034;-93
2020/12/21 04:31:00;;;;;;;4.70;2.28;;;7.40;85.90;;;;;;5019095;28;20034;-94
2020/12/21 04:33:26;;;;;;;5.47;2.50;;;7.40;86.00;;;;;;5018428;28;20080;-94
2020/12/21 04:35:51;;;;;;;5.65;1.83;;;7.40;85.90;;;;;;5024778;28;20038;-95
2020/12/21 04:38:17;;;;;;;9.95;3.60;;;7.30;85.90;;;;;;5031692;28;20022;-94
2020/12/21 04:40:42;;;;;;;5.95;2.38;;;7.40;85.90;;;;;;5042717;28;20029;-93
2020/12/21 04:43:09;;;;;;;8.63;2.55;;;7.30;85.90;;;;;;5036024;28;20075;-93
2020/12/21 04:45:35;;;;;;;5.82;2.38;;;7.30;85.90;;;;;;5014143;28;20014;-94
2020/12/21 04:48:02;;;;;;;8.40;2.97;;;7.30;85.90;;;;;;5016196;28;20025;-96
2020/12/21 04:50:32;;;;;;;7.32;2.67;;;7.30;86.00;;;;;;5030776;28;20053;-96
2020/12/21 04:52:58;;;;;;;10.95;3.30;;;7.30;86.00;;;;;;5031066;28;20044;-95
2020/12/21 04:55:25;;;;;;;6.80;2.83;;;7.30;86.20;;;;;;5020899;28;20124;-96
2020/12/21 04:58:02;;;;;;;7.72;2.95;;;7.20;86.80;;;;;;5025091;28;20032;-94
2020/12/21 05:00:30;;;;;;;5.88;2.60;;;7.20;86.30;;;;;;5041682;28;20029;-95
2020/12/21 05:02:57;;;;;;;9.70;2.70;;;7.20;86.30;;;;;;5021809;28;20041;-94
2020/12/21 05:05:33;;;;;;;13.07;2.85;;;7.20;86.40;;;;;;5028851;28;20021;-94
2020/12/21 05:08:13;;;;;;;9.98;3.70;;;7.20;86.40;;;;;;5053613;28;20062;-93
2020/12/21 05:10:43;;;;;;;8.23;2.60;;;7.20;86.40;;;;;;5051053;28;20089;-95
2020/12/21 05:13:09;;;;;;;5.53;2.00;;;7.20;86.50;;;;;;5033585;28;20049;-94
2020/12/21 05:15:35;;;;;;;5.50;2.42;;;7.10;86.50;;;;;;5034661;28;20033;-93
2020/12/21 05:18:07;;;;;;;6.90;2.45;;;7.20;86.50;;;;;;5027783;28;20452;-95
2020/12/21 05:20:35;;;;;;;4.43;1.98;;;7.20;86.50;;;;;;5026897;28;20048;-94
2020/12/21 05:23:02;;;;;;;9.02;2.97;;;7.20;86.50;;;;;;5032651;28;20034;-96
2020/12/21 05:25:30;;;;;;;9.18;3.08;;;7.20;86.40;;;;;;5067672;28;20013;-96
2020/12/21 05:28:10;;;;;;;3.97;2.08;;;7.20;86.50;;;;;;5044462;28;20038;-96
2020/12/21 05:30:36;;;;;;;5.93;2.13;;;7.20;86.50;;;;;;5011067;28;20021;-96
2020/12/21 05:33:02;;;;;;;5.15;1.63;;;7.20;86.50;;;;;;5021581;28;20034;-94
2020/12/21 05:35:29;;;;;;;8.27;2.97;;;7.20;86.50;;;;;;5004688;28;20031;-94
2020/12/21 05:37:56;;;;;;;7.07;2.42;;;7.20;86.40;;;;;;4997966;28;20486;-93
2020/12/21 05:40:25;;;;;;;8.02;2.72;;;7.20;86.50;;;;;;4996764;28;20123;-95
2020/12/21 05:42:51;;;;;;;8.35;2.80;;;7.30;86.50;;;;;;4998198;28;20018;-92
2020/12/21 05:45:16;;;;;;;6.72;2.42;;;7.30;86.50;;;;;;5022586;28;20028;-95
2020/12/21 05:47:48;;;;;;;5.03;1.92;;;7.30;86.40;;;;;;5001197;28;20460;-92
2020/12/21 05:50:20;;;;;;;6.13;2.17;;;7.30;86.50;;;;;;5019421;28;20503;-93
2020/12/21 05:52:52;;;;;;;6.50;2.45;;;7.20;86.40;;;;;;5014676;28;20051;-93
2020/12/21 05:55:20;;;;;;;6.35;1.80;;;7.30;86.40;;;;;;5039211;28;20029;-95
2020/12/21 05:57:48;;;;;;;4.82;1.77;;;7.30;86.40;;;;;;5023924;28;20036;-94
2020/12/21 06:00:15;;;;;;;5.88;2.15;;;7.30;86.40;;;;;;5007245;28;20039;-93
2020/12/21 06:02:42;;;;;;;4.90;1.83;;;7.30;86.30;;;;;;5007440;28;20025;-96
2020/12/21 06:05:10;;;;;;;5.15;1.92;;;7.30;86.30;;;;;;5045347;28;20066;-91
2020/12/21 06:07:37;;;;;;;5.22;1.80;;;7.30;86.20;;;;;;5030107;28;20218;-92
2020/12/21 06:10:06;;;;;;;7.07;2.08;;;7.30;86.20;;;;;;5016672;28;20726;-93
2020/12/21 06:12:42;;;;;;;5.03;2.03;;;7.30;86.30;;;;;;5000139;28;20033;-93
2020/12/21 06:15:11;;;;;;;9.02;2.40;;;7.30;86.30;;;;;;5016531;28;20038;-92
2020/12/21 06:17:37;;;;;;;5.10;1.90;;;7.30;86.20;;;;;;5018196;28;20026;-94
2020/12/21 06:20:10;;;;;;;5.65;2.30;;;7.30;86.20;;;;;;4999257;28;20088;-91
2020/12/21 06:22:37;;;;;;;5.25;2.20;;;7.30;86.30;;;;;;5006415;28;20025;-93
2020/12/21 06:25:07;;;;;;;3.25;1.70;;;7.30;86.20;;;;;;5027800;28;20670;-94
2020/12/21 06:27:40;;;;;;;2.92;1.50;;;7.30;86.20;;;;;;5021968;28;20026;-92
2020/12/21 06:30:10;;;;;;;5.28;1.45;;;7.40;86.10;;;;;;5015153;28;20037;-92
2020/12/21 06:32:37;;;;;;;4.95;1.70;;;7.40;86.00;;;;;;5029145;28;20032;-92
2020/12/21 06:35:20;;;;;;;6.10;2.03;;;7.40;86.00;;;;;;5016971;28;20038;-92
2020/12/21 06:38:00;;;;;;;2.83;1.58;;;7.40;86.10;;;;;;5024732;28;20082;-92
2020/12/21 06:40:33;;;;;;;4.47;1.70;;;7.30;86.00;;;;;;5030925;28;20033;-93
2020/12/21 06:43:14;;;;;;;5.18;2.00;;;7.40;86.20;;;;;;5020886;28;20029;-93
2020/12/21 06:45:40;;;;;;;4.18;1.85;;;7.30;86.20;;;;;;4997635;28;20534;-93
2020/12/21 06:48:07;;;;;;;3.70;1.50;;;7.30;86.30;;;;;;5025451;28;20021;-91
2020/12/21 06:50:32;;;;;;;3.35;1.58;;;7.30;86.30;;;;;;5026592;28;20164;-92
2020/12/21 06:52:58;;;;;;;5.57;2.20;;;7.30;86.30;;;;;;5028673;28;20125;-93
2020/12/21 06:55:33;;;;;;;4.03;1.75;;;7.20;86.30;;;;;;5022633;28;20021;-93
2020/12/21 06:57:59;;;;;;;3.55;1.50;;;7.20;86.40;;;;;;5004123;28;20047;-92
2020/12/21 07:00:24;;;;;;;3.38;1.65;;;7.20;86.40;;;;;;5011250;28;20082;-92
2020/12/21 07:02:50;;;;;;;2.63;1.90;;;7.30;86.50;;;;;;5022332;28;20022;-93
2020/12/21 07:05:15;;;;;;;5.93;2.20;;;7.20;87.00;;;;;;5026227;28;20463;-91
2020/12/21 07:07:41;;;;;;;4.97;2.20;;;7.20;86.40;;;;;;5016086;28;20030;-91
2020/12/21 07:10:13;;;;;;;5.70;2.25;;;7.10;86.30;;;;;;5012991;28;20218;-93
2020/12/21 07:12:40;;;;;;;6.35;2.03;;;7.10;86.50;;;;;;5024872;28;20029;-93
2020/12/21 07:15:05;;;;;;;3.40;1.90;;;7.00;86.50;;;;;;5019523;28;20446;-93
2020/12/21 07:17:31;;;;;;;5.75;2.50;;;7.00;86.60;;;;;;5024708;28;20026;-91
2020/12/21 07:19:58;;;;;;;6.78;2.60;;;7.00;86.70;;;;;;5024679;28;20029;-91
2020/12/21 07:22:25;;;;;;;6.53;2.00;;;6.90;87.50;;;;;;5033834;28;20009;-92
2020/12/21 07:24:51;;;;;;;4.18;2.30;;;6.90;86.90;;;;;;5022972;28;20071;-91
2020/12/21 07:27:16;;;;;;;4.55;2.17;;;7.00;87.00;;;;;;5016302;28;20018;-92
2020/12/21 07:29:42;;;;;;;5.88;2.40;;;6.90;86.90;;;;;;5014671;28;20056;-92
2020/12/21 07:32:08;;;;;;;6.22;2.13;;;7.00;86.90;;;;;;5023768;28;20029;-93
2020/12/21 07:55:12;;;;;;;6.25;2.72;;;6.90;86.80;;;;;;5890773;22;20118;-94
2020/12/21 07:57:37;;;;;;;5.85;2.53;;;7.00;86.80;;;;;;5012538;28;20029;-94
2020/12/21 08:00:05;;;;;;;8.00;3.15;;;7.00;86.70;;;;;;5000550;28;20541;-95
2020/12/21 08:02:32;;;;;;;7.88;2.80;;;6.90;86.80;;;;;;5009249;28;20054;-95
2020/12/21 08:10:12;;;;;;;6.07;2.30;;;7.00;87.10;;;;;;5419449;23;20093;-93
2020/12/21 08:12:39;;;;;;;7.90;2.67;;;7.00;87.10;;;;;;4991735;28;20172;-92
2020/12/21 08:15:05;;;;;;;6.60;2.60;;;7.00;87.10;;;;;;4981727;28;20061;-92
2020/12/21 08:17:31;;;;;;;5.85;2.50;;;7.00;87.20;;;;;;5001454;28;20023;-91
2020/12/21 08:36:31;;;;;;;8.23;2.90;;;7.10;86.90;;;;;;5012866;28;20056;-89
2020/12/21 08:51:16;;;;;;;8.05;2.75;;;7.30;87.00;;;;;;5051833;23;20053;-91
2020/12/21 08:59:28;;;;;;;6.70;2.20;;;7.40;86.80;;;;;;5257437;23;20046;-90
2020/12/21 09:01:54;;;;;;;4.70;1.80;;;7.50;86.70;;;;;;5013312;28;20053;-89
2020/12/21 09:14:42;;;;;;;10.13;3.42;;;7.70;86.10;;;;;;5072360;22;20066;-92
2020/12/21 09:17:08;;;;;;;5.97;1.88;;;7.80;86.00;;;;;;4974877;28;20084;-92
2020/12/21 10:18:02;;;;;;;4.22;1.65;;;8.40;84.40;;;;;;5268863;23;20099;-91
2020/12/21 10:35:46;;;;;;;4.78;2.10;;;8.60;84.20;;;;;;5479523;23;20080;-88
2020/12/21 10:38:23;;;;;;;7.28;2.10;;;8.50;84.30;;;;;;5020141;28;20018;-87
2020/12/21 10:46:56;;;;;;;5.03;2.05;;;8.60;84.40;;;;;;5573196;23;20081;-90
2020/12/21 10:49:23;;;;;;;5.30;2.47;;;8.60;84.30;;;;;;5007250;28;20022;-91
2020/12/21 10:54:26;;;;;;;3.90;1.27;;;8.70;84.40;;;;;;5984081;22;20077;-92
2020/12/21 11:09:08;;;;;;;4.85;2.63;;;8.70;84.70;;;;;;5015999;28;20057;-91
2020/12/21 11:15:42;;;;;;;6.05;2.10;;;8.70;85.10;;;;;;4956940;28;20043;-92
2020/12/21 11:18:07;;;;;;;5.45;2.10;;;8.60;85.40;;;;;;4954988;28;20042;-92
2020/12/21 11:20:33;;;;;;;7.88;2.65;;;8.60;85.60;;;;;;5006987;28;20383;-93
2020/12/21 11:22:58;;;;;;;3.90;1.80;;;8.60;85.90;;;;;;4988003;28;20036;-95
2020/12/21 11:25:24;;;;;;;6.32;2.72;;;8.60;85.90;;;;;;5000727;28;20038;-92
2020/12/21 11:27:49;;;;;;;6.00;2.67;;;8.60;86.00;;;;;;5001714;28;20026;-94
2020/12/21 11:30:15;;;;;;;6.00;2.35;;;8.70;86.10;;;;;;5067111;23;20429;-90
2020/12/21 11:32:40;;;;;;;5.68;2.38;;;8.70;86.30;;;;;;5005962;28;20021;-91
2020/12/21 11:35:07;;;;;;;5.65;2.10;;;8.60;86.50;;;;;;5010516;28;20040;-90
2020/12/21 11:37:33;;;;;;;6.68;2.60;;;8.70;86.60;;;;;;4985491;28;20026;-91
2020/12/21 11:39:59;;;;;;;4.22;1.95;;;8.60;86.80;;;;;;4991510;28;20076;-91
2020/12/21 11:42:24;;;;;;;4.55;2.30;;;8.60;86.90;;;;;;5006778;28;20489;-91
2020/12/21 11:44:50;;;;;;;4.57;2.50;;;8.70;86.90;;;;;;5008449;28;20033;-92
2020/12/21 11:47:15;;;;;;;5.43;2.10;;;8.60;87.10;;;;;;4987342;28;20026;-91
2020/12/21 11:49:42;;;;;;;6.60;2.83;;;8.60;87.20;;;;;;4984273;28;20025;-90
2020/12/21 11:52:07;;;;;;;7.85;2.97;;;8.60;87.50;;;;;;5008150;28;20200;-89
2020/12/21 11:54:33;;;;;;;6.60;2.30;;;8.60;87.70;;;;;;5008482;28;20032;-90
2020/12/21 11:56:59;;;;;;;7.88;2.88;;;8.50;88.00;;;;;;4991863;28;20030;-91
2020/12/21 11:59:33;;;;;;;6.55;2.50;;;8.50;88.30;;;;;;4994960;28;20218;-90
2020/12/21 12:02:01;;;;;;;4.63;2.55;;;8.50;88.30;;;;;;5012762;28;20030;-90
2020/12/21 12:04:53;;;;;;;;;;;;;;;;;;;;;
2020/12/21 12:37:17;;;;;;;10.43;3.40;;;8.60;89.10;;;;;;4976582;28;20062;-88
2020/12/21 12:39:43;;;;;;;6.22;2.95;;;8.50;89.30;;;;;;4957446;28;20476;-87
2020/12/21 12:42:10;;;;;;;4.80;2.40;;;8.50;89.50;;;;;;5009128;28;20045;-89
2020/12/21 12:44:36;;;;;;;8.15;3.85;;;8.50;89.60;;;;;;5013248;28;20028;-89
2020/12/21 12:47:02;;;;;;;7.05;3.10;;;8.50;89.70;;;;;;5014425;28;20026;-90
2020/12/21 12:49:27;;;;;;;4.43;2.58;;;8.50;89.80;;;;;;5023340;28;20079;-90
2020/12/21 12:51:55;;;;;;;6.43;3.83;;;8.60;89.80;;;;;;4998570;28;20030;-90
2020/12/21 12:54:22;;;;;;;11.25;3.85;;;8.50;89.80;;;;;;5019298;28;20142;-91
2020/12/21 12:57:42;;;;;;;7.03;2.95;;;8.50;89.90;;;;;;5022991;28;20025;-90
2020/12/21 13:03:47;;;;;;;5.10;2.88;;;8.50;90.00;;;;;;4978094;28;20052;-91
2020/12/21 13:09:36;;;;;;;8.32;3.55;;;8.60;90.00;;;;;;5021859;28;20188;-92
2020/12/21 13:12:56;;;;;;;7.43;3.47;;;8.50;90.00;;;;;;4997697;28;20038;-90
2020/12/21 13:15:49;;;;;;;7.43;3.72;;;8.60;90.10;;;;;;4931428;29;20164;-92
2020/12/21 13:18:22;;;;;;;8.63;3.70;;;8.60;90.10;;;;;;4927852;29;20536;-92
2020/12/21 13:21:06;;;;;;;7.50;3.55;;;8.60;90.10;;;;;;4915643;29;20027;-91
2020/12/21 13:23:32;;;;;;;7.43;3.30;;;8.70;90.10;;;;;;4916044;29;20461;-91
2020/12/21 13:26:05;;;;;;;9.43;3.80;;;8.70;90.00;;;;;;4934242;29;20051;-91
2020/12/21 13:28:31;;;;;;;7.20;3.50;;;8.70;90.10;;;;;;4935561;28;20039;-91
2020/12/21 13:31:02;;;;;;;9.02;3.70;;;8.70;90.10;;;;;;5013190;28;20025;-92
2020/12/21 13:33:28;;;;;;;5.70;3.70;;;8.70;90.10;;;;;;5009382;28;20124;-91
2020/12/21 13:35:54;;;;;;;8.77;3.67;;;8.70;90.10;;;;;;5004592;28;20042;-94
2020/12/21 13:38:20;;;;;;;6.25;3.28;;;8.70;90.00;;;;;;5119015;23;20037;-94
2020/12/21 13:40:46;;;;;;;10.52;3.58;;;8.70;90.00;;;;;;4511127;23;15107673;-92
2020/12/21 13:43:45;;;;;;;7.43;3.63;;;8.70;90.00;;;;;;4952160;28;20065;-91
2020/12/21 13:55:45;;;;;;;7.20;3.10;;;8.80;90.00;;;;;;4993027;28;20060;-88
2020/12/21 13:58:10;;;;;;;7.65;3.33;;;8.90;90.00;;;;;;4978419;28;20039;-92
2020/12/21 14:00:45;;;;;;;5.80;3.30;;;8.70;90.00;;;;;;4986566;28;20462;-93
2020/12/21 14:03:10;;;;;;;6.57;3.15;;;8.70;90.00;;;;;;4963930;28;20054;-93
2020/12/21 14:05:46;;;;;;;6.20;3.15;;;8.70;90.10;;;;;;4985086;28;20031;-91
2020/12/21 14:08:11;;;;;;;6.65;3.05;;;8.70;90.10;;;;;;4973038;28;20084;-93
2020/12/21 14:10:52;;;;;;;5.30;2.92;;;8.70;90.10;;;;;;4987366;28;20113;-94
2020/12/21 14:13:18;;;;;;;5.75;3.10;;;8.70;90.10;;;;;;4977089;28;20226;-95
2020/12/21 14:15:44;;;;;;;5.30;2.70;;;8.70;90.10;;;;;;4972232;28;20035;-93
2020/12/21 14:18:09;;;;;;;5.75;2.97;;;8.80;90.20;;;;;;4974895;28;20030;-90
2020/12/21 14:20:35;;;;;;;5.40;3.03;;;8.70;90.10;;;;;;4978290;28;20049;-92
2020/12/21 14:23:02;;;;;;;6.47;3.30;;;8.70;90.10;;;;;;4974566;28;20090;-93
2020/12/21 14:25:28;;;;;;;7.20;3.60;;;8.70;90.20;;;;;;4982232;28;20052;-92
2020/12/21 14:27:53;;;;;;;8.13;3.25;;;8.70;90.20;;;;;;4983637;28;20719;-94
2020/12/21 14:30:19;;;;;;;8.85;2.95;;;8.70;90.20;;;;;;4959571;28;20022;-92
2020/12/21 14:32:55;;;;;;;5.13;3.10;;;8.80;90.20;;;;;;4957072;28;20019;-92
2020/12/21 14:35:22;;;;;;;5.30;2.85;;;8.70;90.20;;;;;;4974619;28;20567;-90
2020/12/21 14:37:57;;;;;;;6.25;2.90;;;8.70;90.20;;;;;;4966757;28;20046;-90
2020/12/21 14:40:24;;;;;;;6.63;3.47;;;8.70;90.30;;;;;;4977295;28;20113;-89
2020/12/21 14:42:53;;;;;;;6.05;2.85;;;8.70;90.30;;;;;;4966539;28;20472;-90
2020/12/21 14:45:38;;;;;;;5.35;3.05;;;8.70;90.30;;;;;;4971997;28;20027;-91
2020/12/21 14:48:04;;;;;;;9.10;2.90;;;8.70;90.40;;;;;;4975695;28;20035;-89
2020/12/21 14:50:30;;;;;;;6.28;3.30;;;8.70;90.40;;;;;;4953906;28;20022;-90
2020/12/21 14:52:56;;;;;;;4.88;2.85;;;8.70;90.40;;;;;;4991279;28;20031;-94
2020/12/21 14:55:22;;;;;;;5.35;2.90;;;8.70;90.40;;;;;;4998014;28;20077;-92
2020/12/21 14:57:48;;;;;;;6.45;3.38;;;8.80;90.40;;;;;;4955899;28;20038;-90
2020/12/21 15:00:14;;;;;;;5.18;3.08;;;8.80;90.40;;;;;;4980715;28;20037;-91
2020/12/21 15:02:39;;;;;;;3.53;2.40;;;8.80;90.40;;;;;;4974788;28;20115;-91
2020/12/21 15:05:08;;;;;;;5.22;3.40;;;8.80;90.40;;;;;;4987641;28;20061;-91
2020/12/21 15:07:39;;;;;;;4.57;3.38;;;8.80;90.40;;;;;;4966080;28;20038;-92
2020/12/21 15:10:11;;;;;;;6.22;2.80;;;8.80;90.40;;;;;;4986695;28;20125;-90
2020/12/21 15:12:38;;;;;;;;;;;8.80;90.40;;;;;;4970050;28;20023;-91
2020/12/21 15:15:10;;;;;;;7.38;3.80;;;8.80;90.40;;;;;;4959937;28;19933;-91
2020/12/21 15:17:36;;;;;;;6.13;3.20;;;8.70;90.40;;;;;;4957622;28;20022;-90
2020/12/21 15:20:02;;;;;;;4.15;2.70;;;8.70;90.50;;;;;;4973246;28;20031;-89
2020/12/21 15:22:28;;;;;;;5.95;3.78;;;8.70;90.50;;;;;;4973571;28;20038;-90
2020/12/21 15:24:53;;;;;;;5.68;3.00;;;8.80;90.50;;;;;;4981949;28;20034;-90
2020/12/21 15:27:19;;;;;;;6.60;3.40;;;8.80;90.50;;;;;;4957682;28;20421;-88
2020/12/21 15:29:44;;;;;;;6.10;3.60;;;8.70;90.50;;;;;;4963536;28;20046;-91
2020/12/21 15:32:10;;;;;;;3.53;2.47;;;8.70;90.50;;;;;;4955732;28;20019;-87
2020/12/21 15:34:36;;;;;;;4.80;2.20;;;8.70;90.50;;;;;;4971257;28;20074;-90
2020/12/21 15:37:02;;;;;;;5.82;3.38;;;8.80;90.50;;;;;;4982997;28;20018;-91
2020/12/21 15:39:27;;;;;;;4.32;2.63;;;8.80;90.50;;;;;;4973966;28;20030;-89
2020/12/21 15:41:53;;;;;;;5.82;2.78;;;8.80;90.50;;;;;;4974192;28;20031;-90
2020/12/21 15:44:18;;;;;;;4.25;2.88;;;8.80;90.50;;;;;;4984583;28;20042;-87
2020/12/21 15:47:03;;;;;;;4.95;3.03;;;8.80;90.50;;;;;;4985594;28;20011;-90
2020/12/21 15:49:29;;;;;;;4.28;2.30;;;8.90;90.40;;;;;;4972576;28;20027;-89
2020/12/21 15:52:01;;;;;;;3.78;2.67;;;8.90;90.40;;;;;;4979721;28;20041;-89
2020/12/21 15:54:26;;;;;;;2.50;2.30;;;8.90;90.30;;;;;;4957777;28;20038;-90
2020/12/21 15:56:52;;;;;;;4.05;3.05;;;8.90;90.20;;;;;;4973400;28;20353;-89
2020/12/21 15:59:18;;;;;;;3.67;2.30;;;8.90;90.30;;;;;;4975860;28;20267;-88
2020/12/21 16:01:50;;;;;;;4.00;2.88;;;8.90;90.30;;;;;;4984995;28;20018;-88
2020/12/21 16:04:16;;;;;;;3.03;2.30;;;8.80;90.30;;;;;;5018425;23;20061;-89
2020/12/21 16:06:42;;;;;;;3.45;2.85;;;8.90;90.40;;;;;;4993165;28;20492;-90
2020/12/21 16:09:08;;;;;;;2.53;2.17;;;8.90;90.30;;;;;;4988249;28;20686;-90
2020/12/21 16:11:37;;;;;;;3.35;2.50;;;8.90;90.30;;;;;;5006531;28;20022;-91
2020/12/21 16:14:03;;;;;;;3.80;3.25;;;8.90;90.60;;;;;;4997437;28;20030;-91
2020/12/21 16:16:32;;;;;;;3.65;2.50;;;8.90;90.30;;;;;;4973334;28;20065;-91
2020/12/21 16:18:58;;;;;;;4.47;3.30;;;8.90;90.30;;;;;;4972822;28;20018;-90
2020/12/21 16:21:25;;;;;;;3.83;3.10;;;8.90;90.30;;;;;;4975223;28;20030;-90
2020/12/21 16:23:52;;;;;;;4.20;3.22;;;8.90;90.40;;;;;;4972803;28;20019;-91
2020/12/21 16:26:25;;;;;;;6.53;2.90;;;8.90;90.40;;;;;;4992718;28;20050;-89
2020/12/21 16:28:51;;;;;;;4.00;3.10;;;8.90;90.40;;;;;;4993427;28;20109;-89
2020/12/21 16:31:17;;;;;;;2.90;2.38;;;8.90;90.40;;;;;;4991192;28;20030;-91
2020/12/21 16:33:43;;;;;;;3.38;2.83;;;8.90;90.30;;;;;;4969010;28;20054;-90
2020/12/21 16:36:08;;;;;;;5.63;4.00;;;8.90;90.30;;;;;;4972985;28;20018;-88
2020/12/21 16:38:35;;;;;;;5.97;2.80;;;8.90;90.40;;;;;;4982939;28;20097;-89
2020/12/21 16:41:01;;;;;;;3.40;2.08;;;8.90;90.40;;;;;;4986582;28;20117;-91
2020/12/21 16:43:26;;;;;;;3.65;2.75;;;9.00;90.40;;;;;;4971103;28;20058;-91